Time;durP1;ratioP1;P1;durP2;ratioP2;P2;SDS_P1;SDS_P2;PMS_P1;PMS_P2;Temp;Humidity;BMP_temperature;BMP_pressure;BME280_temperature;BME280_humidity;BME280_pressure;Samples;Min_cycle;Max_cycle;Signal;HPM_P1;HPM_P2
2023/08/04 00:00:46;;;;;;;15.73;13.27;;;;;;;23.90;62.61;99139.88;5092167;28;20024;-59
2023/08/04 00:03:11;;;;;;;21.00;13.20;;;;;;;23.87;62.46;99130.25;5095050;28;20028;-66
2023/08/04 00:05:37;;;;;;;21.60;13.40;;;;;;;23.86;62.71;99133.22;5096813;28;20412;-60
2023/08/04 00:08:03;;;;;;;17.52;13.48;;;;;;;23.85;62.86;99137.00;5095851;28;20443;-60
2023/08/04 00:10:28;;;;;;;17.33;13.52;;;;;;;23.78;62.43;99121.53;5095994;28;20036;-58
2023/08/04 00:12:54;;;;;;;17.92;12.68;;;;;;;23.59;62.75;99092.53;5095814;28;20123;-59
2023/08/04 00:15:19;;;;;;;16.10;12.77;;;;;;;23.74;63.01;99130.41;5095326;28;20453;-58
2023/08/04 00:17:45;;;;;;;17.75;13.25;;;;;;;23.52;62.75;99111.72;5096105;28;20035;-60
2023/08/04 00:20:11;;;;;;;16.70;12.60;;;;;;;23.62;63.30;99142.06;5096090;28;20039;-60
2023/08/04 00:22:37;;;;;;;16.77;14.05;;;;;;;23.57;63.31;99135.66;5096282;28;20043;-61
2023/08/04 00:25:03;;;;;;;16.65;12.35;;;;;;;23.56;63.29;99143.00;5095956;28;20213;-58
2023/08/04 00:27:31;;;;;;;16.67;13.45;;;;;;;23.53;63.26;99151.63;5095330;28;20084;-58
2023/08/04 00:29:57;;;;;;;14.88;12.95;;;;;;;23.51;63.50;99140.09;5095562;28;20130;-57
2023/08/04 00:32:22;;;;;;;14.00;12.60;;;;;;;23.47;63.74;99141.63;5096139;28;20028;-59
2023/08/04 00:34:48;;;;;;;18.80;13.00;;;;;;;23.43;64.12;99148.59;5095835;28;20324;-59
2023/08/04 00:37:13;;;;;;;18.20;13.15;;;;;;;23.22;64.02;99110.50;5095280;28;20024;-65
2023/08/04 00:39:39;;;;;;;18.30;13.50;;;;;;;23.33;64.37;99139.00;5095868;28;20028;-61
2023/08/04 00:42:04;;;;;;;18.38;13.95;;;;;;;23.30;64.26;99133.19;5095389;28;20067;-59
2023/08/04 00:44:30;;;;;;;18.70;13.23;;;;;;;23.26;64.52;99140.97;5095628;28;20020;-56
2023/08/04 00:46:56;;;;;;;22.83;13.07;;;;;;;23.24;64.66;99137.59;5095496;28;20067;-58
2023/08/04 00:49:22;;;;;;;18.27;13.95;;;;;;;23.21;64.63;99138.06;5083694;28;20032;-58
2023/08/04 00:51:48;;;;;;;19.17;13.43;;;;;;;23.19;64.83;99140.19;5095629;28;20020;-59
2023/08/04 00:54:13;;;;;;;21.85;13.63;;;;;;;23.15;64.79;99138.94;5081924;28;20036;-55
2023/08/04 00:56:39;;;;;;;15.52;13.23;;;;;;;23.13;65.00;99146.50;5095314;28;20032;-56
2023/08/04 00:59:05;;;;;;;15.82;13.95;;;;;;;23.11;65.23;99148.63;5095062;28;20028;-58
2023/08/04 01:01:31;;;;;;;16.60;13.93;;;;;;;23.09;65.11;99132.50;5077645;28;20450;-59
2023/08/04 01:03:58;;;;;;;14.88;13.27;;;;;;;23.07;65.23;99140.06;5095361;28;20024;-54
2023/08/04 01:06:59;;;;;;;16.17;13.25;;;;;;;23.19;65.36;99137.44;5094225;28;20032;-60
2023/08/04 01:09:46;;;;;;;18.70;13.82;;;;;;;23.13;65.28;99141.91;5073469;28;20415;-59
2023/08/04 01:12:26;;;;;;;19.55;13.85;;;;;;;23.09;65.40;99129.75;5075225;28;20048;-56
2023/08/04 01:14:55;;;;;;;15.98;13.63;;;;;;;22.94;65.53;99124.63;5073474;28;20025;-59
2023/08/04 01:17:28;;;;;;;18.42;12.77;;;;;;;23.01;65.97;99139.06;5074485;28;20068;-58
2023/08/04 01:19:55;;;;;;;20.48;13.90;;;;;;;23.04;65.49;99137.78;5074377;28;20028;-57
2023/08/04 01:22:21;;;;;;;20.58;14.15;;;;;;;23.05;65.53;99134.81;5074024;28;20037;-56
2023/08/04 01:24:48;;;;;;;18.42;14.20;;;;;;;23.05;65.54;99131.28;5074663;28;20033;-62
2023/08/04 01:27:17;;;;;;;14.88;13.38;;;;;;;23.12;65.26;99139.38;5073326;28;20405;-58
2023/08/04 01:29:44;;;;;;;16.00;13.65;;;;;;;23.20;65.19;99141.84;5073705;28;20351;-58
2023/08/04 01:32:11;;;;;;;19.42;13.95;;;;;;;23.26;65.03;99142.84;5074138;28;20107;-58
2023/08/04 01:34:37;;;;;;;18.75;13.95;;;;;;;23.31;64.82;99145.78;5074207;28;20044;-59
2023/08/04 01:37:03;;;;;;;26.33;14.65;;;;;;;23.32;64.94;99151.00;5073671;28;20405;-59
2023/08/04 01:39:28;;;;;;;20.00;14.45;;;;;;;23.34;64.48;99121.56;5073915;28;20102;-58
2023/08/04 01:41:54;;;;;;;19.85;13.75;;;;;;;23.47;64.35;99138.91;5073748;28;20074;-57
2023/08/04 01:44:19;;;;;;;18.55;13.27;;;;;;;23.50;64.43;99141.16;5074173;28;20075;-58
2023/08/04 01:46:45;;;;;;;22.50;13.02;;;;;;;23.52;64.36;99141.78;5074202;28;20025;-58
2023/08/04 01:49:10;;;;;;;19.75;13.52;;;;;;;23.57;64.19;99135.66;5072722;28;20034;-59
2023/08/04 01:51:36;;;;;;;17.73;14.02;;;;;;;23.49;64.05;99125.84;5073710;28;20035;-56
2023/08/04 01:54:02;;;;;;;18.25;13.30;;;;;;;23.59;64.48;99139.81;5072285;28;20032;-60
2023/08/04 01:56:27;;;;;;;17.08;13.77;;;;;;;23.61;64.11;99142.31;5073562;28;20045;-59
2023/08/04 01:58:53;;;;;;;21.98;13.68;;;;;;;23.64;64.09;99148.19;5073115;28;20108;-58
2023/08/04 02:01:20;;;;;;;19.10;14.43;;;;;;;23.65;63.90;99149.84;5073865;28;20334;-62
2023/08/04 02:03:45;;;;;;;21.88;13.73;;;;;;;23.42;63.82;99106.78;5073938;28;20044;-59
2023/08/04 02:06:11;;;;;;;19.73;14.32;;;;;;;23.64;63.99;99142.72;5072209;28;20044;-58
2023/08/04 02:08:37;;;;;;;17.23;13.40;;;;;;;23.68;64.00;99145.00;5085955;28;20052;-60
2023/08/04 02:11:02;;;;;;;23.33;13.57;;;;;;;23.66;64.08;99145.19;5093730;28;20432;-60
2023/08/04 02:13:28;;;;;;;18.42;13.73;;;;;;;23.72;63.68;99146.19;5093787;28;20099;-58
2023/08/04 02:15:53;;;;;;;17.70;14.88;;;;;;;23.75;63.64;99156.66;5093332;28;20031;-59
2023/08/04 02:18:19;;;;;;;20.45;13.98;;;;;;;23.76;63.52;99155.59;5094029;28;20040;-67
2023/08/04 02:20:45;;;;;;;18.15;13.55;;;;;;;23.80;63.39;99151.34;5093965;28;20024;-57
2023/08/04 02:23:10;;;;;;;17.27;13.38;;;;;;;23.82;63.28;99165.63;5093194;28;20114;-56
2023/08/04 02:25:36;;;;;;;16.92;13.07;;;;;;;23.83;63.27;99161.81;5092346;28;20046;-60
2023/08/04 02:28:02;;;;;;;21.65;13.20;;;;;;;23.87;63.04;99163.06;5093980;28;20084;-60
2023/08/04 02:30:28;;;;;;;19.95;15.00;;;;;;;23.94;62.78;99162.97;5092524;28;20031;-58
2023/08/04 02:32:53;;;;;;;18.42;13.90;;;;;;;23.92;63.05;99157.75;5092776;28;20362;-57
2023/08/04 02:35:19;;;;;;;16.60;13.45;;;;;;;23.93;63.02;99159.41;5093656;28;20069;-58
2023/08/04 02:37:45;;;;;;;18.10;13.73;;;;;;;23.95;62.89;99170.09;5093543;28;20028;-56
2023/08/04 02:40:11;;;;;;;19.20;14.55;;;;;;;23.76;62.97;99131.00;5093107;28;20470;-60
2023/08/04 02:42:36;;;;;;;21.90;13.90;;;;;;;23.97;62.60;99161.69;5093098;28;20124;-59
2023/08/04 02:45:02;;;;;;;19.13;13.90;;;;;;;23.99;62.78;99167.75;5093212;28;20028;-56
2023/08/04 02:47:30;;;;;;;16.35;13.60;;;;;;;24.00;62.67;99166.69;5092943;28;20027;-56
2023/08/04 02:49:56;;;;;;;16.75;13.48;;;;;;;24.07;62.31;99170.22;5093128;28;20042;-57
2023/08/04 02:52:21;;;;;;;21.85;13.18;;;;;;;24.14;62.30;99167.41;5092563;28;20028;-65
2023/08/04 02:54:46;;;;;;;19.65;13.52;;;;;;;24.21;62.08;99169.00;5093164;28;20104;-61
2023/08/04 02:57:12;;;;;;;18.13;13.57;;;;;;;24.29;61.70;99178.78;5075369;28;20032;-59
2023/08/04 02:59:37;;;;;;;17.92;14.02;;;;;;;24.32;61.40;99169.25;5093168;28;20054;-58
2023/08/04 03:02:03;;;;;;;18.00;13.32;;;;;;;24.27;61.21;99161.78;5092384;28;20036;-54
2023/08/04 03:04:29;;;;;;;15.43;13.75;;;;;;;24.24;61.17;99140.34;5092828;28;20134;-55
2023/08/04 03:06:54;;;;;;;18.05;13.80;;;;;;;24.44;61.02;99169.31;5093121;28;20028;-58
2023/08/04 03:09:20;;;;;;;19.08;13.20;;;;;;;24.42;61.12;99169.56;5092460;28;20098;-56
2023/08/04 03:11:46;;;;;;;19.45;13.63;;;;;;;24.44;61.06;99170.16;5092113;28;20051;-58
2023/08/04 03:14:11;;;;;;;19.92;12.90;;;;;;;24.48;61.08;99167.81;5092670;28;20032;-58
2023/08/04 03:16:37;;;;;;;15.65;13.07;;;;;;;24.49;60.94;99172.22;5092499;28;20435;-56
2023/08/04 03:19:02;;;;;;;15.85;13.00;;;;;;;24.50;61.01;99177.44;5092657;28;20417;-58
2023/08/04 03:21:28;;;;;;;17.48;14.23;;;;;;;24.51;60.65;99172.81;5092387;28;20028;-58
2023/08/04 03:23:53;;;;;;;15.60;13.32;;;;;;;24.51;60.88;99176.38;5092447;28;20060;-61
2023/08/04 03:26:19;;;;;;;21.48;13.48;;;;;;;24.48;61.64;99179.56;5092614;28;20020;-57
2023/08/04 03:28:44;;;;;;;17.13;13.60;;;;;;;24.44;61.21;99150.16;5077798;28;20024;-60
2023/08/04 03:31:10;;;;;;;16.60;13.65;;;;;;;24.76;60.60;99189.09;5091422;28;20042;-57
2023/08/04 03:33:35;;;;;;;20.60;14.02;;;;;;;24.89;59.97;99173.56;5092802;28;20056;-57
2023/08/04 03:36:01;;;;;;;16.77;13.10;;;;;;;25.33;59.03;99196.03;5091924;28;20081;-61
2023/08/04 03:38:26;;;;;;;19.55;12.80;;;;;;;25.68;57.67;99186.16;5095619;28;20032;-56
2023/08/04 03:40:52;;;;;;;18.23;13.07;;;;;;;25.98;56.92;99184.31;5080400;28;20101;-56
2023/08/04 03:43:17;;;;;;;14.55;12.27;;;;;;;26.22;55.83;99182.41;5096512;28;20028;-57
2023/08/04 03:45:43;;;;;;;17.42;13.60;;;;;;;26.32;54.98;99157.09;5096021;28;20882;-58
2023/08/04 03:48:08;;;;;;;15.93;12.80;;;;;;;26.73;54.35;99190.78;5096254;28;20051;-58
2023/08/04 03:50:34;;;;;;;13.65;11.65;;;;;;;26.97;53.87;99192.63;5096162;28;20054;-60
2023/08/04 03:53:00;;;;;;;13.88;11.60;;;;;;;27.37;52.68;99184.22;5096247;28;20021;-59
2023/08/04 03:55:27;;;;;;;15.65;12.90;;;;;;;27.74;52.38;99191.09;5096637;28;20027;-58
2023/08/04 03:57:52;;;;;;;14.50;11.85;;;;;;;28.08;50.98;99192.94;5096761;28;20028;-60
2023/08/04 04:00:18;;;;;;;15.20;11.85;;;;;;;28.51;49.57;99198.69;5095474;28;20099;-57
2023/08/04 04:02:43;;;;;;;14.27;11.35;;;;;;;29.22;47.66;99203.28;5096356;28;20427;-57
2023/08/04 04:05:09;;;;;;;14.68;11.38;;;;;;;30.01;45.35;99199.13;5096523;28;20112;-58
2023/08/04 04:07:35;;;;;;;16.80;10.80;;;;;;;30.96;43.34;99197.25;5095209;28;20048;-60
2023/08/04 04:10:00;;;;;;;13.00;10.43;;;;;;;31.70;41.21;99183.09;5096187;28;20051;-60
2023/08/04 04:12:26;;;;;;;12.10;9.90;;;;;;;32.61;39.95;99203.59;5096472;28;20051;-64
2023/08/04 04:14:53;;;;;;;11.65;10.23;;;;;;;33.42;38.50;99208.00;5096252;28;20363;-61
2023/08/04 04:17:19;;;;;;;14.48;10.25;;;;;;;34.29;36.45;99219.34;5094852;28;20446;-61
2023/08/04 04:19:44;;;;;;;12.38;10.25;;;;;;;35.00;34.85;99213.06;5095991;28;20024;-60
2023/08/04 04:22:10;;;;;;;12.20;9.45;;;;;;;35.74;33.65;99217.16;5096205;28;20028;-61
2023/08/04 04:24:35;;;;;;;11.13;9.27;;;;;;;36.17;32.79;99202.97;5095634;28;20020;-60
2023/08/04 04:27:01;;;;;;;11.63;9.35;;;;;;;36.73;31.68;99225.19;5094477;28;20043;-62
2023/08/04 04:29:26;;;;;;;9.25;8.32;;;;;;;37.12;30.75;99217.31;5095596;28;20024;-66
2023/08/04 04:31:52;;;;;;;10.07;8.73;;;;;;;37.50;30.63;99199.34;5096080;28;20088;-62
2023/08/04 04:34:18;;;;;;;12.18;9.52;;;;;;;38.15;29.25;99208.19;5096128;28;20438;-63
2023/08/04 04:36:43;;;;;;;10.38;8.65;;;;;;;38.61;28.45;99217.19;5095555;28;20032;-61
2023/08/04 04:39:09;;;;;;;10.02;8.80;;;;;;;38.91;28.28;99222.97;5095083;28;20024;-61
2023/08/04 04:41:35;;;;;;;10.43;9.43;;;;;;;39.44;27.14;99202.53;5095706;28;20400;-61
2023/08/04 04:44:01;;;;;;;9.88;8.90;;;;;;;40.01;26.51;99214.50;5095208;28;20032;-60
2023/08/04 04:46:26;;;;;;;12.70;8.63;;;;;;;40.35;25.95;99212.72;5095884;28;20085;-61
2023/08/04 04:48:52;;;;;;;11.63;8.60;;;;;;;40.82;25.09;99219.34;5093264;28;20028;-61
2023/08/04 04:51:17;;;;;;;13.50;8.65;;;;;;;41.09;24.92;99217.91;5091006;28;20035;-59
2023/08/04 04:53:43;;;;;;;12.15;8.75;;;;;;;41.37;24.39;99216.53;5095546;28;20427;-58
2023/08/04 04:56:09;;;;;;;11.77;8.90;;;;;;;41.56;23.69;99228.03;5095445;28;20042;-55
2023/08/04 04:58:35;;;;;;;10.80;9.77;;;;;;;41.53;24.14;99227.91;5095250;28;20028;-57
2023/08/04 05:01:02;;;;;;;10.70;9.15;;;;;;;41.29;24.50;99233.13;5095162;28;20036;-60
2023/08/04 05:03:28;;;;;;;10.40;8.70;;;;;;;41.30;23.93;99198.25;5095561;28;20085;-68
2023/08/04 05:05:53;;;;;;;12.73;9.13;;;;;;;41.89;23.44;99215.94;5094978;28;20420;-62
2023/08/04 05:08:19;;;;;;;11.70;8.82;;;;;;;42.49;22.72;99213.84;5094754;28;20076;-58
2023/08/04 05:10:49;;;;;;;9.40;7.85;;;;;;;43.17;22.23;99215.03;5094925;28;20036;-55
2023/08/04 05:13:15;;;;;;;12.52;8.00;;;;;;;43.66;21.27;99205.50;5094856;28;20032;-55
2023/08/04 05:15:40;;;;;;;8.43;7.60;;;;;;;44.43;20.01;99189.22;5095223;28;20034;-58
2023/08/04 05:18:06;;;;;;;11.77;7.43;;;;;;;45.14;19.66;99193.16;5093674;28;20031;-56
2023/08/04 05:20:31;;;;;;;8.60;7.80;;;;;;;45.54;18.97;99200.34;5094803;28;20027;-58
2023/08/04 05:22:57;;;;;;;9.45;7.50;;;;;;;45.99;18.71;99202.72;5094938;28;20067;-58
2023/08/04 05:25:22;;;;;;;8.70;7.80;;;;;;;46.49;17.99;99211.16;5094390;28;20036;-54
2023/08/04 05:27:50;;;;;;;7.60;6.90;;;;;;;46.75;17.93;99205.84;5095021;28;20039;-59
2023/08/04 05:30:15;;;;;;;9.45;7.97;;;;;;;47.18;17.66;99192.19;5094908;28;20181;-55
2023/08/04 05:32:41;;;;;;;9.07;7.50;;;;;;;47.34;17.24;99186.31;5094586;28;20028;-54
2023/08/04 05:35:09;;;;;;;9.35;6.90;;;;;;;47.61;17.00;99188.97;5094232;28;20683;-54
2023/08/04 05:37:34;;;;;;;13.77;7.75;;;;;;;47.70;17.10;99177.34;5094548;28;20052;-59
2023/08/04 05:40:04;;;;;;;8.02;7.07;;;;;;;48.25;16.27;99189.91;5094411;28;20084;-63
2023/08/04 05:42:30;;;;;;;10.02;7.25;;;;;;;48.75;15.84;99194.22;5094459;28;20024;-53
2023/08/04 05:44:55;;;;;;;11.32;7.15;;;;;;;49.07;15.75;99194.31;5094526;28;20036;-57
2023/08/04 05:47:25;;;;;;;7.15;6.65;;;;;;;49.63;14.88;99187.53;5094015;28;20032;-56
2023/08/04 05:49:51;;;;;;;7.72;6.97;;;;;;;49.75;14.71;99189.97;5093599;28;20067;-60
2023/08/04 05:52:16;;;;;;;9.80;6.80;;;;;;;49.63;14.74;99190.38;5093429;28;20064;-60
2023/08/04 05:54:42;;;;;;;9.38;5.97;;;;;;;49.93;14.53;99183.50;5094306;28;20020;-60
2023/08/04 05:57:07;;;;;;;8.13;7.32;;;;;;;50.14;14.10;99196.84;5094139;28;20040;-58
2023/08/04 05:59:33;;;;;;;8.93;6.50;;;;;;;50.49;13.85;99194.34;5094186;28;20020;-58
2023/08/04 06:01:58;;;;;;;11.88;6.68;;;;;;;50.80;13.68;99188.94;5094353;28;20084;-57
2023/08/04 06:04:24;;;;;;;8.38;6.65;;;;;;;50.78;13.66;99191.38;5094008;28;20024;-58
2023/08/04 06:06:49;;;;;;;9.82;6.85;;;;;;;50.98;13.31;99197.41;5093909;28;20075;-59
2023/08/04 06:09:15;;;;;;;7.57;6.55;;;;;;;50.86;13.64;99175.88;5093998;28;20048;-56
2023/08/04 06:11:41;;;;;;;12.02;6.95;;;;;;;51.22;13.49;99198.47;5093949;28;20070;-61
2023/08/04 06:14:06;;;;;;;12.05;7.40;;;;;;;51.61;13.28;99198.59;5093515;28;20134;-55
2023/08/04 06:16:32;;;;;;;9.85;6.82;;;;;;;51.79;12.81;99198.50;5093881;28;20066;-69
2023/08/04 06:18:58;;;;;;;9.50;6.82;;;;;;;52.22;12.74;99202.97;5093826;28;20024;-53
2023/08/04 06:21:24;;;;;;;9.40;7.18;;;;;;;52.53;12.13;99203.84;5092716;28;20028;-60
2023/08/04 06:23:49;;;;;;;13.23;7.22;;;;;;;52.64;12.46;99212.28;5094016;28;20039;-60
2023/08/04 06:26:15;;;;;;;6.90;6.20;;;;;;;53.13;12.07;99207.59;5093619;28;20027;-59
2023/08/04 06:28:41;;;;;;;8.77;6.90;;;;;;;53.76;11.97;99204.16;5093605;28;20253;-59
2023/08/04 06:31:07;;;;;;;11.95;6.53;;;;;;;54.01;11.25;99204.94;5075737;28;20347;-60
2023/08/04 06:33:32;;;;;;;8.18;7.07;;;;;;;54.48;11.27;99212.66;5093291;28;20035;-60
2023/08/04 06:35:58;;;;;;;10.13;7.72;;;;;;;55.19;10.29;99202.97;5093549;28;20438;-60
2023/08/04 06:38:23;;;;;;;8.05;7.10;;;;;;;54.24;10.74;99218.44;5093688;28;20035;-56
2023/08/04 06:40:49;;;;;;;6.97;6.35;;;;;;;53.26;11.73;99211.47;5093478;28;20115;-59
2023/08/04 06:43:15;;;;;;;6.53;6.03;;;;;;;53.14;11.70;99215.75;5093173;28;20552;-58
2023/08/04 06:45:40;;;;;;;7.18;5.82;;;;;;;53.14;11.93;99187.16;5092365;28;20031;-56
2023/08/04 06:48:06;;;;;;;8.40;6.00;;;;;;;52.64;12.08;99220.03;5092798;28;20439;-60
2023/08/04 06:50:31;;;;;;;6.82;6.25;;;;;;;51.72;12.92;99216.50;5093656;28;20513;-57
2023/08/04 06:52:57;;;;;;;7.63;6.00;;;;;;;52.33;12.71;99217.94;5093101;28;20020;-57
2023/08/04 06:55:22;;;;;;;8.52;6.55;;;;;;;53.39;11.38;99209.66;5092708;28;20264;-58
2023/08/04 06:57:47;;;;;;;8.35;6.60;;;;;;;54.42;11.07;99202.97;5093411;28;20035;-55
2023/08/04 07:00:13;;;;;;;6.15;5.60;;;;;;;54.99;10.82;99202.97;5092816;28;20389;-57
2023/08/04 07:02:40;;;;;;;8.85;6.13;;;;;;;55.36;10.78;99204.63;5092362;28;20199;-58
2023/08/04 07:05:06;;;;;;;7.65;6.43;;;;;;;56.19;9.58;99209.44;5091951;28;20410;-66
2023/08/04 07:07:31;;;;;;;10.85;6.95;;;;;;;56.57;9.22;99200.16;5092683;28;20075;-60
2023/08/04 07:09:57;;;;;;;6.85;6.20;;;;;;;56.68;9.51;99207.66;5092638;28;20043;-59
2023/08/04 07:12:22;;;;;;;6.57;6.07;;;;;;;56.40;8.93;99207.25;5091968;28;20115;-59
2023/08/04 07:14:48;;;;;;;6.93;6.27;;;;;;;56.79;8.83;99188.81;5092473;28;20024;-66
2023/08/04 07:17:13;;;;;;;10.20;6.68;;;;;;;57.49;8.16;99204.72;5084348;28;20259;-63
2023/08/04 07:19:39;;;;;;;7.05;6.55;;;;;;;56.71;8.66;99198.16;5089858;28;20415;-62
2023/08/04 07:22:04;;;;;;;9.20;7.05;;;;;;;56.97;9.02;99209.69;5092628;28;20039;-60
2023/08/04 07:24:30;;;;;;;11.63;7.30;;;;;;;57.48;8.18;99209.69;5086837;28;20034;-61
2023/08/04 07:26:56;;;;;;;8.00;7.22;;;;;;;57.80;7.82;99194.66;5074325;28;20028;-61
2023/08/04 07:29:21;;;;;;;7.20;6.50;;;;;;;58.17;7.78;99189.22;5090642;28;20035;-60
2023/08/04 07:31:47;;;;;;;7.15;6.55;;;;;;;57.16;8.30;99200.03;5092367;28;20112;-67
2023/08/04 07:34:12;;;;;;;12.00;7.35;;;;;;;55.30;9.55;99206.34;5085145;28;20166;-72
2023/08/04 07:36:38;;;;;;;12.98;7.22;;;;;;;54.06;10.09;99205.28;5090717;28;20043;-66
2023/08/04 07:39:03;;;;;;;6.50;5.97;;;;;;;53.06;10.71;99208.53;5090944;28;20444;-63
2023/08/04 07:41:30;;;;;;;8.45;5.70;;;;;;;50.88;12.61;99199.06;5090225;28;20418;-64
2023/08/04 07:43:55;;;;;;;8.63;5.53;;;;;;;51.21;12.01;99205.41;5091754;28;20508;-64
2023/08/04 07:46:25;;;;;;;5.85;5.38;;;;;;;51.18;11.99;99211.13;5091926;28;20123;-64
2023/08/04 07:48:51;;;;;;;9.68;5.40;;;;;;;49.68;13.05;99207.84;5091531;28;20038;-66
2023/08/04 07:51:17;;;;;;;6.75;4.95;;;;;;;50.88;12.20;99195.41;5092168;28;20055;-66
2023/08/04 07:53:44;;;;;;;6.35;4.78;;;;;;;52.84;10.71;99205.13;5092352;28;20020;-65
2023/08/04 07:56:09;;;;;;;5.57;5.13;;;;;;;54.71;10.14;99202.38;5092208;28;20030;-65
2023/08/04 07:58:35;;;;;;;6.00;5.60;;;;;;;56.12;8.40;99219.09;5091828;28;20024;-64
2023/08/04 08:01:03;;;;;;;9.68;6.38;;;;;;;56.42;8.24;99219.91;5091568;28;20036;-62
2023/08/04 08:03:29;;;;;;;7.32;5.00;;;;;;;56.00;8.76;99211.22;5092405;28;20039;-63
2023/08/04 08:05:55;;;;;;;9.55;6.32;;;;;;;55.63;8.92;99209.25;5091586;28;20088;-64
2023/08/04 08:08:20;;;;;;;6.15;5.50;;;;;;;55.69;8.62;99212.41;5091629;28;20040;-63
2023/08/04 08:10:46;;;;;;;6.32;5.72;;;;;;;55.75;8.81;99207.75;5091193;28;20092;-65
2023/08/04 08:13:12;;;;;;;6.38;5.68;;;;;;;55.06;9.39;99206.50;5072769;28;20032;-64
2023/08/04 08:15:37;;;;;;;6.45;5.95;;;;;;;54.04;10.19;99207.78;5090317;28;20020;-65
2023/08/04 08:18:03;;;;;;;5.90;5.40;;;;;;;52.87;10.90;99209.97;5073571;28;20032;-64
2023/08/04 08:20:29;;;;;;;7.25;5.57;;;;;;;51.59;11.09;99207.59;5090583;28;20031;-63
2023/08/04 08:22:54;;;;;;;5.22;4.82;;;;;;;49.23;13.08;99196.00;5074514;28;20024;-63
2023/08/04 08:25:20;;;;;;;6.20;4.30;;;;;;;46.30;15.68;99212.91;5094340;28;20041;-63
2023/08/04 08:27:45;;;;;;;5.13;4.22;;;;;;;43.35;18.18;99209.09;5080030;28;20060;-63
2023/08/04 08:30:11;;;;;;;4.90;4.25;;;;;;;41.18;20.18;99213.09;5074760;28;20028;-63
2023/08/04 08:32:37;;;;;;;6.30;3.92;;;;;;;39.25;22.91;99222.47;5075372;28;20035;-62
2023/08/04 08:35:02;;;;;;;8.98;4.95;;;;;;;38.19;24.69;99217.56;5074826;28;20038;-64
2023/08/04 08:37:29;;;;;;;4.72;4.18;;;;;;;37.57;25.42;99212.88;5081659;28;20816;-65
2023/08/04 08:39:54;;;;;;;7.60;4.07;;;;;;;37.10;26.07;99216.81;5057307;28;20024;-64
2023/08/04 08:42:20;;;;;;;5.07;4.68;;;;;;;36.82;26.92;99211.31;5082211;28;20354;-65
2023/08/04 08:44:45;;;;;;;10.25;5.10;;;;;;;36.51;27.04;99217.53;5093609;28;20089;-64
2023/08/04 08:47:11;;;;;;;7.75;4.93;;;;;;;36.33;27.64;99222.13;5093287;28;20592;-62
2023/08/04 08:49:44;;;;;;;5.60;5.10;;;;;;;36.26;27.10;99228.13;5075299;28;20032;-63
2023/08/04 08:52:09;;;;;;;10.98;4.97;;;;;;;35.62;27.21;99203.72;5075425;28;20044;-64
2023/08/04 08:54:36;;;;;;;5.80;4.45;;;;;;;35.53;27.57;99223.09;5093581;28;20362;-66
2023/08/04 08:57:02;;;;;;;5.18;4.68;;;;;;;35.31;27.90;99230.13;5076214;28;20377;-68
2023/08/04 08:59:28;;;;;;;6.25;4.43;;;;;;;35.08;28.80;99222.72;5094419;28;20097;-67
2023/08/04 09:01:55;;;;;;;7.30;4.70;;;;;;;34.92;28.71;99211.78;5094746;28;20039;-63
2023/08/04 09:04:22;;;;;;;13.57;5.43;;;;;;;35.01;28.41;99237.84;5094406;28;20439;-62
2023/08/04 09:06:47;;;;;;;5.43;4.57;;;;;;;34.35;28.87;99207.03;5057198;28;20324;-67
2023/08/04 09:09:13;;;;;;;8.35;4.43;;;;;;;34.21;28.62;99245.81;5074684;28;20135;-63
2023/08/04 09:11:38;;;;;;;7.47;4.28;;;;;;;34.12;27.88;99237.31;5075204;28;20033;-64
2023/08/04 09:14:05;;;;;;;4.88;4.32;;;;;;;34.11;28.63;99243.97;5074083;28;20032;-63
2023/08/04 09:16:36;;;;;;;4.57;4.18;;;;;;;34.05;27.70;99236.84;5074657;28;20055;-64
2023/08/04 09:19:09;;;;;;;4.93;4.00;;;;;;;33.78;27.49;99236.25;5074372;28;20113;-64
2023/08/04 09:21:36;;;;;;;4.80;4.28;;;;;;;33.49;28.53;99231.53;5090918;28;20035;-65
2023/08/04 09:24:03;;;;;;;5.45;3.50;;;;;;;33.34;28.39;99228.88;5094712;28;20028;-64
2023/08/04 09:26:44;;;;;;;3.97;3.63;;;;;;;33.23;28.18;99217.03;5094682;28;20412;-63
2023/08/04 09:29:12;;;;;;;6.50;3.90;;;;;;;33.08;28.43;99231.84;5094595;28;20035;-65
2023/08/04 09:31:48;;;;;;;5.28;3.90;;;;;;;33.18;28.01;99233.72;5077419;28;20054;-62
2023/08/04 09:34:13;;;;;;;5.15;3.80;;;;;;;32.95;28.56;99238.06;5094194;28;20026;-64
2023/08/04 09:36:45;;;;;;;6.53;4.13;;;;;;;32.83;28.22;99241.97;5093767;28;20047;-63
2023/08/04 09:39:12;;;;;;;5.40;3.75;;;;;;;32.59;28.62;99230.75;5094279;28;20093;-64
2023/08/04 09:41:42;;;;;;;4.72;4.25;;;;;;;32.48;27.55;99225.25;5094670;28;20418;-63
2023/08/04 09:44:07;;;;;;;11.10;4.28;;;;;;;32.55;27.82;99226.88;5094250;28;20726;-63
2023/08/04 09:46:40;;;;;;;5.95;3.90;;;;;;;32.49;26.91;99198.38;5093899;28;20028;-64
2023/08/04 09:49:07;;;;;;;6.15;3.88;;;;;;;32.70;26.62;99242.63;5093549;28;20035;-63
2023/08/04 09:51:40;;;;;;;6.72;3.45;;;;;;;32.73;26.61;99240.06;5090008;28;20036;-64
2023/08/04 09:54:06;;;;;;;4.25;3.80;;;;;;;32.65;26.99;99218.53;5093034;28;20036;-63
2023/08/04 09:56:33;;;;;;;6.72;4.32;;;;;;;32.65;27.15;99224.06;5092693;28;20088;-64
2023/08/04 09:58:59;;;;;;;3.72;3.35;;;;;;;32.61;27.53;99242.38;5093677;28;20082;-64
2023/08/04 10:01:25;;;;;;;5.53;4.13;;;;;;;32.59;27.51;99250.16;5093845;28;20052;-64
2023/08/04 10:03:53;;;;;;;9.88;3.70;;;;;;;32.49;27.58;99237.19;5093330;28;20024;-64
2023/08/04 10:06:20;;;;;;;6.72;3.67;;;;;;;32.38;27.58;99235.56;5092812;28;20511;-64
2023/08/04 10:08:48;;;;;;;4.65;3.65;;;;;;;32.38;27.41;99239.16;5093710;28;20052;-63
2023/08/04 10:11:13;;;;;;;3.97;3.60;;;;;;;32.24;26.53;99224.22;5093796;28;20043;-63
2023/08/04 10:13:41;;;;;;;3.50;3.20;;;;;;;32.16;27.16;99229.25;5093821;28;20032;-64
2023/08/04 10:16:10;;;;;;;4.82;2.83;;;;;;;32.18;27.05;99240.88;5093290;28;20114;-64
2023/08/04 10:18:51;;;;;;;4.97;2.83;;;;;;;32.31;26.59;99241.34;5093545;28;20032;-64
2023/08/04 10:21:18;;;;;;;6.60;3.40;;;;;;;32.14;26.32;99244.47;5084353;28;20514;-64
2023/08/04 10:23:44;;;;;;;3.53;3.22;;;;;;;32.06;26.72;99240.34;5073047;28;20115;-64
2023/08/04 10:26:12;;;;;;;6.18;3.40;;;;;;;32.06;26.91;99237.56;5073483;28;20116;-64
2023/08/04 10:29:01;;;;;;;3.35;3.05;;;;;;;32.20;26.63;99246.13;5073621;28;20032;-63
2023/08/04 10:31:41;;;;;;;5.00;3.10;;;;;;;32.17;26.97;99241.97;5073273;28;20032;-64
2023/08/04 10:34:35;;;;;;;4.20;3.10;;;;;;;32.19;26.78;99239.75;5072784;28;20470;-63
2023/08/04 10:37:05;;;;;;;9.73;3.10;;;;;;;32.14;26.25;99234.25;5085572;28;20024;-64
2023/08/04 10:39:42;;;;;;;5.45;3.00;;;;;;;32.17;26.48;99246.66;5093120;28;20845;-63
2023/08/04 10:42:23;;;;;;;5.32;3.83;;;;;;;31.92;26.54;99223.50;5093072;28;20101;-63
2023/08/04 10:44:53;;;;;;;5.28;3.22;;;;;;;31.90;27.39;99245.94;5092975;28;20032;-64
2023/08/04 10:47:30;;;;;;;4.70;3.20;;;;;;;32.00;27.81;99245.09;5092368;28;20036;-64
2023/08/04 10:49:57;;;;;;;6.18;3.10;;;;;;;31.97;27.16;99248.41;5092338;28;20104;-64
2023/08/04 10:52:24;;;;;;;5.25;3.17;;;;;;;31.91;27.09;99230.97;5092590;28;20035;-64
2023/08/04 10:54:51;;;;;;;5.07;3.78;;;;;;;31.92;26.97;99235.41;5074932;28;20447;-64
2023/08/04 10:57:21;;;;;;;6.00;3.08;;;;;;;32.00;27.39;99242.31;5092711;28;20028;-64
2023/08/04 10:59:48;;;;;;;6.28;3.58;;;;;;;32.00;27.67;99230.41;5071757;28;20035;-65
2023/08/04 11:02:21;;;;;;;5.50;3.20;;;;;;;32.13;27.52;99240.88;5092606;28;20032;-65
2023/08/04 11:04:47;;;;;;;5.15;4.25;;;;;;;32.12;27.90;99222.63;5092410;28;20447;-64
2023/08/04 11:07:17;;;;;;;6.63;3.42;;;;;;;32.32;27.86;99237.50;5080194;28;20052;-64
2023/08/04 11:09:45;;;;;;;9.65;4.00;;;;;;;32.49;28.07;99240.75;5072386;28;20116;-62
2023/08/04 11:12:11;;;;;;;4.72;3.75;;;;;;;32.49;28.30;99226.09;5072435;28;20094;-63
2023/08/04 11:14:37;;;;;;;4.80;3.92;;;;;;;32.51;28.41;99226.63;5072647;28;20094;-61
2023/08/04 11:17:18;;;;;;;4.60;3.67;;;;;;;32.68;28.28;99231.81;5072074;28;20623;-63
2023/08/04 11:19:48;;;;;;;6.35;3.60;;;;;;;32.55;29.39;99221.34;5070091;28;20480;-65
2023/08/04 11:22:19;;;;;;;4.07;3.78;;;;;;;32.49;28.50;99229.69;5065048;28;20031;-68
2023/08/04 11:24:45;;;;;;;7.28;4.15;;;;;;;32.26;28.49;99217.31;5072836;28;20043;-72